Time;durP1;ratioP1;P1;durP2;ratioP2;P2;SDS_P1;SDS_P2;PMS_P1;PMS_P2;Temp;Humidity;BMP_temperature;BMP_pressure;BME280_temperature;BME280_humidity;BME280_pressure;Samples;Min_cycle;Max_cycle;Signal;HPM_P1;HPM_P2
2023/10/04 00:01:51;;;;;;;3.50;1.90;;;;;;;11.04;100.00;99285.31;5053879;28;20226;-76
2023/10/04 00:04:18;;;;;;;3.50;1.77;;;;;;;11.04;100.00;99286.19;5053615;28;20222;-76
2023/10/04 00:06:45;;;;;;;4.17;1.80;;;;;;;11.06;100.00;99283.47;5053463;28;20204;-76
2023/10/04 00:09:11;;;;;;;4.17;1.77;;;;;;;11.01;100.00;99290.78;5053699;28;20305;-76
2023/10/04 00:11:39;;;;;;;2.53;1.60;;;;;;;10.99;100.00;99290.84;5053753;28;20231;-76
2023/10/04 00:14:07;;;;;;;3.87;1.97;;;;;;;10.94;100.00;99299.97;5053884;28;20551;-76
2023/10/04 00:16:34;;;;;;;3.47;1.80;;;;;;;10.90;100.00;99303.72;5053815;28;20245;-75
2023/10/04 00:19:00;;;;;;;3.20;1.73;;;;;;;10.88;100.00;99300.31;5053639;28;20666;-76
2023/10/04 00:21:27;;;;;;;2.60;1.77;;;;;;;10.87;100.00;99303.84;5053331;28;20278;-76
2023/10/04 00:23:54;;;;;;;3.90;2.10;;;;;;;10.90;100.00;99301.91;5053329;28;20287;-77
2023/10/04 00:26:20;;;;;;;3.00;1.90;;;;;;;10.89;100.00;99302.00;5053425;28;20202;-76
2023/10/04 00:28:48;;;;;;;2.77;2.00;;;;;;;10.90;100.00;99309.00;5053447;28;20205;-76
2023/10/04 00:31:15;;;;;;;4.60;2.07;;;;;;;10.94;100.00;99310.56;5053101;28;20246;-76
2023/10/04 00:33:41;;;;;;;3.87;2.23;;;;;;;10.95;100.00;99305.16;5053455;28;20226;-76
2023/10/04 00:36:08;;;;;;;3.37;2.00;;;;;;;10.96;100.00;99311.31;5053281;28;20239;-76
2023/10/04 00:38:34;;;;;;;4.30;2.10;;;;;;;10.90;100.00;99309.00;5053256;28;20204;-76
2023/10/04 00:41:01;;;;;;;4.93;1.70;;;;;;;10.82;100.00;99311.19;5053185;28;20228;-77
2023/10/04 00:43:28;;;;;;;3.73;2.20;;;;;;;10.73;100.00;99306.34;5053303;28;20294;-76
2023/10/04 00:45:56;;;;;;;3.73;1.80;;;;;;;10.70;100.00;99307.38;5053476;28;20239;-76
2023/10/04 00:48:24;;;;;;;5.07;2.03;;;;;;;10.69;100.00;99302.16;5053186;28;20208;-76
2023/10/04 00:50:51;;;;;;;3.40;1.90;;;;;;;10.67;100.00;99296.97;5053113;28;20226;-76
2023/10/04 00:53:23;;;;;;;2.60;1.80;;;;;;;10.69;100.00;99304.78;5052963;28;20225;-76
2023/10/04 00:55:53;;;;;;;2.87;2.00;;;;;;;10.70;100.00;99309.19;5053015;28;20232;-76
2023/10/04 00:58:19;;;;;;;3.23;1.80;;;;;;;10.70;100.00;99306.53;5052903;28;20675;-76
2023/10/04 01:00:48;;;;;;;6.63;2.13;;;;;;;10.74;100.00;99302.78;5052535;28;20331;-76
2023/10/04 01:03:20;;;;;;;2.97;2.00;;;;;;;10.75;100.00;99304.47;5052429;28;20205;-77
2023/10/04 01:05:47;;;;;;;2.83;1.90;;;;;;;10.74;100.00;99298.34;5052458;28;20215;-76
2023/10/04 01:08:15;;;;;;;4.70;1.90;;;;;;;10.77;100.00;99302.63;5052267;28;20207;-76
2023/10/04 01:10:43;;;;;;;4.57;2.10;;;;;;;10.76;100.00;99298.28;5052744;28;20311;-76
2023/10/04 01:13:10;;;;;;;3.30;1.87;;;;;;;10.76;100.00;99306.22;5052406;28;20208;-76
2023/10/04 01:15:37;;;;;;;4.37;2.20;;;;;;;10.76;100.00;99298.28;5052579;28;20728;-76
2023/10/04 01:18:09;;;;;;;4.70;1.87;;;;;;;10.71;100.00;99302.94;5052462;28;20237;-76
2023/10/04 01:20:38;;;;;;;5.60;2.40;;;;;;;10.67;100.00;99293.47;5052745;28;20258;-77
2023/10/04 01:23:09;;;;;;;2.60;1.90;;;;;;;10.63;100.00;99287.47;5052337;28;20220;-76
2023/10/04 01:25:37;;;;;;;2.93;1.83;;;;;;;10.62;100.00;99298.97;5052505;28;20789;-77
2023/10/04 01:28:07;;;;;;;2.17;1.70;;;;;;;10.66;100.00;99304.97;5052447;28;20218;-77
2023/10/04 01:30:35;;;;;;;4.00;2.20;;;;;;;10.69;100.00;99299.50;5052203;28;20309;-76
2023/10/04 01:33:03;;;;;;;3.07;2.10;;;;;;;10.68;100.00;99298.66;5052180;28;20564;-76
2023/10/04 01:35:29;;;;;;;3.47;2.00;;;;;;;10.69;100.00;99297.72;5052272;28;20239;-77
2023/10/04 01:37:56;;;;;;;4.47;1.83;;;;;;;10.69;100.00;99299.50;5052145;28;20208;-77
2023/10/04 01:40:26;;;;;;;3.50;2.10;;;;;;;10.69;100.00;99291.56;5052112;28;20209;-76
2023/10/04 01:42:55;;;;;;;3.50;2.00;;;;;;;10.64;100.00;99291.81;5051615;28;20205;-76
2023/10/04 01:45:21;;;;;;;2.77;1.70;;;;;;;10.67;100.00;99301.38;5051932;28;20212;-76
2023/10/04 01:47:49;;;;;;;3.27;1.53;;;;;;;10.63;100.00;99292.75;5052085;28;20214;-75
2023/10/04 01:50:16;;;;;;;2.70;1.87;;;;;;;10.61;100.00;99291.13;5051966;28;20207;-75
2023/10/04 01:52:49;;;;;;;3.27;1.90;;;;;;;10.58;100.00;99293.94;5051614;28;20228;-75
2023/10/04 01:55:17;;;;;;;3.50;2.10;;;;;;;10.61;100.00;99301.69;5051961;28;20215;-76
2023/10/04 01:57:45;;;;;;;3.63;1.93;;;;;;;10.63;100.00;99305.09;5051814;28;20231;-76
2023/10/04 02:00:16;;;;;;;3.07;1.67;;;;;;;10.69;100.00;99307.44;5051920;28;20208;-76
2023/10/04 02:02:43;;;;;;;4.00;2.30;;;;;;;10.70;100.00;99309.19;5051772;28;20228;-75
2023/10/04 02:05:11;;;;;;;2.70;1.80;;;;;;;10.73;100.00;99301.94;5051754;28;20219;-78
2023/10/04 02:07:39;;;;;;;3.67;1.90;;;;;;;10.76;100.00;99311.50;5051131;28;20674;-75
2023/10/04 02:10:13;;;;;;;4.03;2.00;;;;;;;10.83;100.00;99304.97;5051510;28;20574;-75
2023/10/04 02:12:40;;;;;;;3.27;2.00;;;;;;;10.85;100.00;99301.31;5051403;28;20704;-77
2023/10/04 02:15:14;;;;;;;3.93;2.13;;;;;;;10.88;100.00;99305.59;5051237;28;20212;-75
2023/10/04 02:17:42;;;;;;;2.67;1.87;;;;;;;10.87;100.00;99298.56;5051305;28;20645;-75
2023/10/04 02:20:13;;;;;;;2.80;1.83;;;;;;;10.87;100.00;99298.56;5051364;28;20211;-75
2023/10/04 02:22:39;;;;;;;2.50;1.77;;;;;;;10.94;100.00;99306.09;5050962;28;20247;-75
2023/10/04 02:25:07;;;;;;;3.87;2.20;;;;;;;10.93;100.00;99303.53;5051430;28;20274;-75
2023/10/04 02:27:33;;;;;;;2.73;1.90;;;;;;;10.89;100.00;99302.00;5051448;28;20207;-75
2023/10/04 02:30:06;;;;;;;3.93;1.50;;;;;;;10.81;100.00;99310.31;5051484;28;20209;-75
2023/10/04 02:32:40;;;;;;;2.70;1.60;;;;;;;10.66;100.00;99299.69;5050938;28;20232;-75
2023/10/04 02:35:07;;;;;;;2.37;1.70;;;;;;;10.60;100.00;99310.56;5051299;28;20206;-75
2023/10/04 02:37:34;;;;;;;5.20;2.20;;;;;;;10.60;100.00;99305.28;5051082;28;20242;-75
2023/10/04 02:40:14;;;;;;;4.03;2.00;;;;;;;10.61;100.00;99306.97;5051342;28;20204;-75
2023/10/04 02:42:41;;;;;;;2.80;1.70;;;;;;;10.58;100.00;99307.16;5050943;28;20725;-76
2023/10/04 02:45:12;;;;;;;3.27;1.97;;;;;;;10.61;100.00;99309.63;5051361;28;20207;-76
2023/10/04 02:47:40;;;;;;;5.10;2.20;;;;;;;10.63;100.00;99310.41;5051130;28;20199;-76
2023/10/04 02:50:10;;;;;;;3.43;1.97;;;;;;;10.67;100.00;99311.97;5051323;28;20295;-76
2023/10/04 02:52:37;;;;;;;4.23;2.17;;;;;;;10.70;100.00;99317.13;5050947;28;20398;-76
2023/10/04 02:55:05;;;;;;;4.53;1.97;;;;;;;10.71;100.00;99318.81;5033402;28;20585;-78
2023/10/04 02:57:31;;;;;;;3.13;1.73;;;;;;;10.66;100.00;99321.69;5050998;28;20230;-75
2023/10/04 02:59:58;;;;;;;2.83;1.70;;;;;;;10.61;100.00;99320.19;5051031;28;20218;-76
2023/10/04 03:02:25;;;;;;;4.70;2.20;;;;;;;10.60;100.00;99321.16;5050714;28;20307;-76
2023/10/04 03:04:53;;;;;;;3.07;1.80;;;;;;;10.59;100.00;99325.56;5051115;28;20578;-76
2023/10/04 03:07:19;;;;;;;4.57;2.03;;;;;;;10.50;100.00;99319.88;5050636;28;20242;-76
2023/10/04 03:09:47;;;;;;;5.00;2.23;;;;;;;10.47;100.00;99315.59;5050624;28;20265;-76
2023/10/04 03:12:15;;;;;;;5.37;2.63;;;;;;;10.56;100.00;99322.22;5051131;28;20324;-75
2023/10/04 03:14:42;;;;;;;4.13;2.10;;;;;;;10.54;100.00;99317.03;5050744;28;20215;-75
2023/10/04 03:17:10;;;;;;;3.30;2.10;;;;;;;10.53;100.00;99310.00;5050916;28;20228;-76
2023/10/04 03:19:37;;;;;;;3.37;2.37;;;;;;;10.49;100.00;99310.25;5051157;28;20213;-75
2023/10/04 03:22:05;;;;;;;4.10;2.00;;;;;;;10.43;100.00;99313.19;5050418;28;20626;-75
2023/10/04 03:24:32;;;;;;;5.27;2.10;;;;;;;10.42;100.00;99308.84;5050717;28;20643;-75
2023/10/04 03:26:58;;;;;;;3.23;2.17;;;;;;;10.43;100.00;99313.19;5051618;28;20217;-75
2023/10/04 03:29:25;;;;;;;3.77;2.23;;;;;;;10.41;100.00;99325.63;5054812;28;20226;-76
2023/10/04 03:31:53;;;;;;;3.80;2.30;;;;;;;10.33;100.00;99320.72;5054440;28;20233;-76
2023/10/04 03:34:22;;;;;;;2.83;2.10;;;;;;;10.33;100.00;99331.28;5054662;28;20216;-76
2023/10/04 03:36:49;;;;;;;3.70;1.87;;;;;;;10.26;100.00;99329.03;5054300;28;20736;-76
2023/10/04 03:39:17;;;;;;;3.90;1.93;;;;;;;10.23;100.00;99331.84;5054548;28;20216;-76
2023/10/04 03:41:47;;;;;;;3.70;1.90;;;;;;;10.27;100.00;99321.03;5054044;28;20231;-76
2023/10/04 03:44:14;;;;;;;3.60;2.07;;;;;;;10.27;100.00;99317.56;5054631;28;20214;-76
2023/10/04 03:46:40;;;;;;;4.03;2.47;;;;;;;10.28;100.00;99322.72;5054478;28;20681;-76
2023/10/04 03:49:08;;;;;;;4.13;2.50;;;;;;;10.34;100.00;99319.78;5036349;28;20586;-76
2023/10/04 03:51:34;;;;;;;4.57;2.50;;;;;;;10.39;100.00;99325.72;5053961;28;20232;-76
2023/10/04 03:54:05;;;;;;;3.90;2.30;;;;;;;10.46;100.00;99328.91;5054298;28;20608;-76
2023/10/04 03:56:33;;;;;;;2.87;2.13;;;;;;;10.50;100.00;99325.16;5054007;28;20260;-76
2023/10/04 03:59:00;;;;;;;4.87;2.13;;;;;;;10.51;100.00;99316.34;5054204;28;20210;-76
2023/10/04 04:01:27;;;;;;;3.50;2.30;;;;;;;10.59;100.00;99316.78;5053790;28;20328;-76
2023/10/04 04:03:53;;;;;;;3.63;2.13;;;;;;;10.61;100.00;99317.56;5053834;28;20246;-76
2023/10/04 04:06:20;;;;;;;2.90;2.03;;;;;;;10.61;100.00;99322.84;5053980;28;20265;-75
2023/10/04 04:08:47;;;;;;;5.07;2.47;;;;;;;10.61;100.00;99323.72;5053292;28;20262;-76
2023/10/04 04:11:14;;;;;;;4.00;2.17;;;;;;;10.60;100.00;99332.59;5053748;28;20236;-76
2023/10/04 04:13:44;;;;;;;3.60;2.20;;;;;;;10.57;100.00;99331.84;5053603;28;20266;-76
2023/10/04 04:16:11;;;;;;;3.60;1.83;;;;;;;10.52;100.00;99325.97;5053648;28;20248;-76
2023/10/04 04:18:38;;;;;;;4.57;2.23;;;;;;;10.41;100.00;99336.22;5054053;28;20208;-75
2023/10/04 04:21:06;;;;;;;4.13;2.00;;;;;;;10.36;100.00;99332.94;5053502;28;20282;-76
2023/10/04 04:23:32;;;;;;;4.23;2.60;;;;;;;10.39;100.00;99332.81;5053309;28;20220;-76
2023/10/04 04:26:01;;;;;;;5.00;2.60;;;;;;;10.32;100.00;99326.09;5053383;28;20229;-76
2023/10/04 04:28:29;;;;;;;3.33;2.10;;;;;;;10.27;100.00;99325.47;5053539;28;20552;-76
2023/10/04 04:30:58;;;;;;;4.00;2.60;;;;;;;10.21;100.00;99333.72;5053473;28;20323;-76
2023/10/04 04:33:28;;;;;;;3.27;2.17;;;;;;;10.11;100.00;99337.72;5053198;28;20208;-76
2023/10/04 04:36:00;;;;;;;2.33;2.03;;;;;;;10.11;100.00;99337.72;5053218;28;20745;-76
2023/10/04 04:38:29;;;;;;;3.13;2.50;;;;;;;10.02;100.00;99332.81;5052649;28;20599;-76
2023/10/04 04:40:56;;;;;;;4.93;2.70;;;;;;;10.00;100.00;99339.97;5053087;28;20230;-76
2023/10/04 04:43:36;;;;;;;3.73;2.37;;;;;;;9.93;100.00;99328.88;5053015;28;20238;-76
2023/10/04 04:46:07;;;;;;;4.47;3.00;;;;;;;9.89;100.00;99336.97;5053271;28;20211;-76
2023/10/04 04:48:36;;;;;;;3.87;2.67;;;;;;;9.95;100.00;99340.19;5053135;28;20624;-76
2023/10/04 04:51:06;;;;;;;3.10;2.23;;;;;;;9.97;100.00;99345.41;5053358;28;20220;-76
2023/10/04 04:53:33;;;;;;;4.20;2.33;;;;;;;9.94;100.00;99342.91;5053168;28;20210;-76
2023/10/04 04:56:00;;;;;;;5.73;2.67;;;;;;;9.93;100.00;99344.72;5053071;28;20211;-76
2023/10/04 04:58:28;;;;;;;3.43;2.53;;;;;;;9.84;100.00;99345.13;5052930;28;20604;-76
2023/10/04 05:00:56;;;;;;;4.90;2.50;;;;;;;9.80;100.00;99343.53;5052220;28;20731;-76
2023/10/04 05:03:26;;;;;;;5.47;2.70;;;;;;;9.75;100.00;99350.84;5052506;28;20208;-77
2023/10/04 05:05:55;;;;;;;4.93;2.60;;;;;;;9.71;100.00;99343.13;5052536;28;20246;-76
2023/10/04 05:08:23;;;;;;;4.63;2.67;;;;;;;9.69;100.00;99347.63;5053011;28;20213;-76
2023/10/04 05:10:50;;;;;;;3.97;2.57;;;;;;;9.68;100.00;99348.56;5052705;28;20231;-76
2023/10/04 05:13:18;;;;;;;3.67;2.40;;;;;;;9.63;100.00;99351.41;5052406;28;20258;-76
2023/10/04 05:15:45;;;;;;;4.37;2.60;;;;;;;9.61;100.00;99349.78;5053347;28;20609;-76
2023/10/04 05:18:15;;;;;;;4.93;2.67;;;;;;;9.62;100.00;99343.56;5056079;28;20305;-76
2023/10/04 05:20:43;;;;;;;3.87;2.57;;;;;;;9.55;100.00;99352.69;5053590;28;20233;-76
2023/10/04 05:23:10;;;;;;;5.20;2.80;;;;;;;9.53;100.00;99349.25;5052489;28;20219;-78
2023/10/04 05:25:37;;;;;;;5.00;2.57;;;;;;;9.52;100.00;99352.81;5052411;28;20212;-76
2023/10/04 05:28:05;;;;;;;7.07;2.80;;;;;;;9.49;100.00;99342.41;5052532;28;20518;-76
2023/10/04 05:30:31;;;;;;;4.23;2.73;;;;;;;9.47;100.00;99344.25;5052374;28;20215;-76
2023/10/04 05:32:58;;;;;;;4.17;2.60;;;;;;;9.50;100.00;99330.94;5052181;28;20210;-76
2023/10/04 05:35:24;;;;;;;5.00;2.33;;;;;;;9.48;100.00;99335.44;5052125;28;20221;-76
2023/10/04 05:37:52;;;;;;;4.57;2.60;;;;;;;9.46;100.00;99343.41;5052217;28;20238;-76
2023/10/04 05:40:25;;;;;;;5.37;3.13;;;;;;;9.46;100.00;99339.91;5052064;28;20216;-76
2023/10/04 05:42:53;;;;;;;3.47;2.80;;;;;;;9.51;100.00;99345.84;5051874;28;20256;-77
2023/10/04 05:45:20;;;;;;;4.07;3.10;;;;;;;9.53;100.00;99355.41;5052491;28;20204;-77
2023/10/04 05:47:46;;;;;;;4.70;2.63;;;;;;;9.55;100.00;99358.81;5052135;28;20235;-76
2023/10/04 05:50:17;;;;;;;4.50;2.43;;;;;;;9.57;100.00;99348.19;5052078;28;20261;-77
2023/10/04 05:52:43;;;;;;;2.83;2.50;;;;;;;9.54;100.00;99356.25;5051516;28;20229;-76
2023/10/04 05:55:12;;;;;;;4.13;2.53;;;;;;;9.66;100.00;99355.72;5051793;28;20208;-76
2023/10/04 05:57:38;;;;;;;2.40;2.00;;;;;;;9.68;100.00;99364.41;5051968;28;20240;-76
2023/10/04 06:00:21;;;;;;;4.63;2.67;;;;;;;9.74;100.00;99364.13;5051976;28;20215;-76
2023/10/04 06:02:48;;;;;;;5.13;2.90;;;;;;;9.73;100.00;99367.69;5051466;28;20228;-77
2023/10/04 06:05:16;;;;;;;2.50;2.30;;;;;;;9.79;100.00;99372.69;5051627;28;20760;-76
2023/10/04 06:07:43;;;;;;;4.87;3.10;;;;;;;9.88;100.00;99372.25;5051558;28;20299;-78
2023/10/04 06:10:11;;;;;;;4.23;2.93;;;;;;;9.93;100.00;99367.59;5052187;28;20673;-78
2023/10/04 06:12:39;;;;;;;5.17;2.37;;;;;;;9.94;100.00;99366.66;5052334;28;20235;-78
2023/10/04 06:15:10;;;;;;;4.93;3.03;;;;;;;9.97;100.00;99371.81;5052456;28;20315;-78
2023/10/04 06:17:38;;;;;;;4.63;2.90;;;;;;;9.99;100.00;99369.97;5052860;28;20275;-78
2023/10/04 06:20:22;;;;;;;5.87;2.90;;;;;;;10.13;100.00;99380.75;5053037;28;20461;-79
2023/10/04 06:22:50;;;;;;;7.03;2.70;;;;;;;10.21;100.00;99378.63;5052009;28;20668;-76
2023/10/04 06:25:17;;;;;;;3.53;2.63;;;;;;;10.31;100.00;99371.94;5051337;28;20639;-76
2023/10/04 06:27:45;;;;;;;4.47;2.67;;;;;;;10.34;100.00;99377.09;5051095;28;20206;-76
2023/10/04 06:30:12;;;;;;;4.93;3.00;;;;;;;10.40;100.00;99380.28;5050964;28;20593;-76
2023/10/04 06:32:39;;;;;;;4.50;2.70;;;;;;;10.47;100.00;99383.50;5050560;28;20277;-76
2023/10/04 06:35:08;;;;;;;4.80;2.90;;;;;;;10.53;100.00;99393.75;5051219;28;20204;-76
2023/10/04 06:37:34;;;;;;;4.37;2.93;;;;;;;10.64;100.00;99383.53;5051018;28;20274;-76
2023/10/04 06:40:01;;;;;;;4.10;2.70;;;;;;;10.73;100.00;99388.34;5050795;28;20650;-76
2023/10/04 06:42:27;;;;;;;4.43;2.80;;;;;;;10.79;100.00;99391.53;5050657;28;20617;-76
2023/10/04 06:44:56;;;;;;;4.67;2.80;;;;;;;10.91;100.00;99385.63;5050702;28;20215;-76
2023/10/04 06:47:23;;;;;;;4.23;2.83;;;;;;;11.02;100.00;99388.56;5051036;28;20565;-76
2023/10/04 06:49:50;;;;;;;5.90;3.23;;;;;;;11.11;100.00;99397.81;5050781;28;20208;-76
2023/10/04 06:52:16;;;;;;;7.73;3.13;;;;;;;11.25;100.00;99405.94;5050603;28;20228;-76
2023/10/04 06:54:43;;;;;;;5.50;3.40;;;;;;;11.33;100.00;99401.09;5051304;28;20208;-77
2023/10/04 06:57:09;;;;;;;4.82;3.45;;;;;;;11.44;100.00;99406.69;5051947;28;20458;-77
2023/10/04 06:59:36;;;;;;;5.87;3.20;;;;;;;11.47;100.00;99401.22;5051717;28;20214;-76
2023/10/04 07:02:04;;;;;;;3.70;2.77;;;;;;;11.52;100.00;99399.19;5051772;28;20235;-76
2023/10/04 07:04:30;;;;;;;4.70;2.70;;;;;;;11.62;100.00;99401.28;5055595;28;20209;-78
2023/10/04 07:06:57;;;;;;;5.40;2.40;;;;;;;11.72;100.00;99406.94;5058107;28;20360;-77
2023/10/04 07:09:24;;;;;;;5.73;2.90;;;;;;;11.82;100.00;99408.16;5057743;28;20208;-77
2023/10/04 07:11:50;;;;;;;4.87;2.67;;;;;;;11.86;100.00;99409.72;5056570;28;20228;-78
2023/10/04 07:14:17;;;;;;;4.30;2.77;;;;;;;11.94;100.00;99415.44;5056277;28;20213;-77
2023/10/04 07:16:43;;;;;;;4.20;2.33;;;;;;;11.98;100.00;99415.19;5055912;28;20208;-75
2023/10/04 07:19:11;;;;;;;4.78;2.65;;;;;;;12.09;100.00;99418.13;5054920;28;20470;-77
2023/10/04 07:21:38;;;;;;;5.47;3.10;;;;;;;12.10;100.00;99419.81;5057057;28;20229;-78
2023/10/04 07:24:06;;;;;;;3.73;2.47;;;;;;;12.19;100.00;99431.72;5057500;28;20217;-78
2023/10/04 07:26:35;;;;;;;3.87;2.47;;;;;;;12.22;100.00;99429.75;5057611;28;20213;-78
2023/10/04 07:29:02;;;;;;;11.23;3.87;;;;;;;12.35;100.00;99422.81;5055153;28;20257;-77
2023/10/04 07:31:29;;;;;;;4.27;2.50;;;;;;;12.42;100.00;99428.66;5054576;28;20231;-77
2023/10/04 07:33:56;;;;;;;4.13;2.20;;;;;;;12.46;100.00;99424.91;5054829;28;20219;-77
2023/10/04 07:36:24;;;;;;;4.00;2.47;;;;;;;12.51;100.00;99415.72;5054596;28;20217;-77
2023/10/04 07:38:51;;;;;;;5.53;2.60;;;;;;;12.61;100.00;99421.38;5054390;28;20229;-77
2023/10/04 07:41:17;;;;;;;5.23;2.00;;;;;;;12.73;100.00;99423.31;5054074;28;20239;-77
2023/10/04 07:43:44;;;;;;;7.87;2.07;;;;;;;12.88;100.00;99430.38;5054404;28;20558;-76
2023/10/04 07:46:10;;;;;;;7.37;2.07;;;;;;;13.00;100.00;99432.34;5054507;28;20293;-77
2023/10/04 07:48:37;;;;;;;2.53;1.00;;;;;;;13.12;100.00;99434.28;5054300;28;20225;-77
2023/10/04 07:51:03;;;;;;;3.93;1.17;;;;;;;13.16;100.00;99434.03;5054231;28;20292;-77
2023/10/04 07:53:31;;;;;;;2.47;1.27;;;;;;;13.32;100.00;99439.28;5054087;28;20264;-77
2023/10/04 07:55:58;;;;;;;4.67;1.43;;;;;;;13.43;100.00;99434.16;5054124;28;20229;-77
2023/10/04 07:58:24;;;;;;;5.00;1.40;;;;;;;13.53;100.00;99440.66;5054189;28;20235;-77
2023/10/04 08:00:51;;;;;;;2.03;1.23;;;;;;;13.58;100.00;99439.41;5053826;28;20233;-77
2023/10/04 08:03:17;;;;;;;3.03;1.50;;;;;;;13.65;100.00;99429.28;5053801;28;20229;-77
2023/10/04 08:05:44;;;;;;;3.00;1.50;;;;;;;13.70;100.00;99437.81;5054010;28;20211;-77
2023/10/04 08:08:10;;;;;;;2.90;1.30;;;;;;;13.81;100.00;99433.56;5053964;28;20208;-77
2023/10/04 08:10:39;;;;;;;3.50;1.50;;;;;;;13.93;100.00;99438.09;5053712;28;20214;-77
2023/10/04 08:13:06;;;;;;;2.77;1.57;;;;;;;14.08;100.00;99436.31;5053271;28;20298;-77
2023/10/04 08:15:35;;;;;;;5.33;1.50;;;;;;;14.11;100.00;99433.47;5053275;28;20678;-77
2023/10/04 08:18:03;;;;;;;3.23;1.23;;;;;;;14.24;100.00;99429.94;5053859;28;20267;-77
2023/10/04 08:20:32;;;;;;;4.57;1.30;;;;;;;14.33;100.00;99429.38;5053997;28;20310;-77
2023/10/04 08:22:59;;;;;;;3.97;1.10;;;;;;;14.44;100.00;99431.34;5053274;28;20563;-77
2023/10/04 08:25:27;;;;;;;3.93;1.43;;;;;;;14.51;100.00;99432.66;5054088;28;20210;-77
2023/10/04 08:27:56;;;;;;;3.67;1.03;;;;;;;14.74;100.00;99413.38;5053670;28;20211;-77
2023/10/04 08:30:23;;;;;;;2.43;1.10;;;;;;;14.83;100.00;99413.63;5053577;28;20305;-77
2023/10/04 08:32:52;;;;;;;1.93;1.10;;;;;;;14.88;100.00;99416.84;5053519;28;20300;-77
2023/10/04 08:35:24;;;;;;;5.47;1.40;;;;;;;14.89;100.00;99420.34;5053526;28;20257;-77
2023/10/04 08:37:54;;;;;;;4.93;1.70;;;;;;;14.83;100.00;99407.44;5053553;28;20328;-77
2023/10/04 08:40:20;;;;;;;3.83;1.50;;;;;;;14.94;100.00;99410.25;5053454;28;20218;-77
2023/10/04 08:42:50;;;;;;;4.73;1.20;;;;;;;15.03;100.00;99396.34;5052871;28;20228;-77
2023/10/04 08:45:18;;;;;;;5.90;1.30;;;;;;;15.05;100.00;99402.41;5053314;28;20216;-77
2023/10/04 08:47:50;;;;;;;2.97;1.00;;;;;;;15.09;100.00;99403.91;5053307;28;20683;-77
2023/10/04 08:50:31;;;;;;;3.40;1.50;;;;;;;15.14;100.00;99407.09;5053107;28;20208;-77
2023/10/04 08:53:03;;;;;;;3.77;1.10;;;;;;;15.25;98.39;99388.59;5053786;28;20214;-77
2023/10/04 08:55:36;;;;;;;3.43;1.10;;;;;;;15.32;95.33;99387.19;5053792;28;20215;-77
2023/10/04 08:58:02;;;;;;;5.37;1.47;;;;;;;15.55;91.14;99378.53;5053617;28;20607;-77
2023/10/04 09:00:32;;;;;;;5.77;1.50;;;;;;;15.71;88.27;99373.84;5053388;28;20207;-82
2023/10/04 09:03:00;;;;;;;3.70;1.20;;;;;;;15.65;86.39;99371.59;5053808;28;20215;-79
2023/10/04 09:05:28;;;;;;;2.50;1.30;;;;;;;15.61;87.05;99375.44;5054106;28;20288;-80
2023/10/04 09:07:55;;;;;;;1.37;1.00;;;;;;;15.63;88.89;99376.19;5054289;28;20226;-82
2023/10/04 09:10:25;;;;;;;3.17;1.30;;;;;;;15.66;89.94;99378.63;5054056;28;20695;-79
2023/10/04 09:12:52;;;;;;;3.27;1.10;;;;;;;15.77;85.37;99360.06;5053424;28;20234;-76
2023/10/04 09:15:18;;;;;;;2.45;1.10;;;;;;;15.84;85.74;99358.66;5053510;28;20432;-80
2023/10/04 09:17:55;;;;;;;2.30;1.20;;;;;;;15.86;88.00;99356.75;5052569;28;20208;-80
2023/10/04 09:20:26;;;;;;;3.20;1.40;;;;;;;15.94;86.05;99363.22;5052739;28;20606;-78
2023/10/04 09:22:52;;;;;;;2.27;0.97;;;;;;;16.09;80.47;99335.47;5054356;28;20270;-83
2023/10/04 09:25:20;;;;;;;2.42;1.40;;;;;;;16.14;79.16;99328.84;5060140;28;20436;-85
2023/10/04 09:27:57;;;;;;;1.73;1.10;;;;;;;16.11;82.36;99344.22;5060031;28;20374;-83
2023/10/04 09:30:25;;;;;;;3.20;1.30;;;;;;;16.15;82.27;99354.53;5060328;28;20195;-85
2023/10/04 09:32:53;;;;;;;2.40;1.20;;;;;;;16.22;82.11;99352.28;5059798;28;20219;-85
2023/10/04 09:35:20;;;;;;;2.70;1.30;;;;;;;16.35;77.92;99340.59;5059826;28;20204;-85
2023/10/04 09:37:47;;;;;;;2.43;1.20;;;;;;;16.38;76.75;99327.06;5059061;28;20210;-85
2023/10/04 09:40:16;;;;;;;2.73;1.10;;;;;;;16.37;80.90;99346.69;5060020;28;20746;-85
2023/10/04 09:42:51;;;;;;;2.73;1.13;;;;;;;16.41;81.56;99350.84;5059173;28;20606;-85
2023/10/04 09:45:20;;;;;;;2.27;1.27;;;;;;;16.43;82.81;99354.28;5060418;28;20237;-85
2023/10/04 09:47:46;;;;;;;1.77;1.00;;;;;;;16.56;80.85;99336.38;5060364;28;20220;-84
2023/10/04 09:50:22;;;;;;;2.30;1.17;;;;;;;16.61;80.08;99334.22;5060792;28;20208;-85
2023/10/04 09:52:49;;;;;;;1.83;1.07;;;;;;;16.61;80.13;99336.91;5060925;28;20318;-85
2023/10/04 09:55:16;;;;;;;1.97;1.20;;;;;;;16.66;78.08;99326.72;5061007;28;20219;-84
2023/10/04 09:57:44;;;;;;;3.93;1.30;;;;;;;16.78;76.60;99319.59;5060708;28;20223;-85
2023/10/04 10:00:17;;;;;;;2.73;1.03;;;;;;;16.92;73.37;99300.72;5060776;28;20200;-84
2023/10/04 10:02:47;;;;;;;2.33;1.10;;;;;;;16.93;72.97;99310.41;5060179;28;20228;-84
2023/10/04 10:05:26;;;;;;;2.00;1.07;;;;;;;16.95;74.42;99322.69;5060782;28;20204;-85
2023/10/04 10:07:54;;;;;;;2.50;1.00;;;;;;;17.05;71.43;99307.69;5059835;28;20302;-85
2023/10/04 10:10:21;;;;;;;2.10;1.10;;;;;;;17.14;71.09;99306.13;5059124;28;20208;-84
2023/10/04 10:12:49;;;;;;;2.87;1.07;;;;;;;17.02;69.42;99296.38;5056665;28;20232;-83
2023/10/04 10:15:18;;;;;;;3.53;1.30;;;;;;;16.88;71.22;99300.09;5057212;28;20304;-85
2023/10/04 10:17:46;;;;;;;3.07;1.20;;;;;;;17.16;73.05;99323.72;5058144;28;20276;-85
2023/10/04 10:20:15;;;;;;;3.57;1.23;;;;;;;17.24;72.09;99323.97;5058769;28;20232;-85
2023/10/04 10:23:13;;;;;;;2.13;1.30;;;;;;;17.16;69.29;99305.03;5059573;28;20775;-84
2023/10/04 10:26:01;;;;;;;2.53;1.17;;;;;;;17.22;70.77;99315.25;5063969;28;20249;-84
2023/10/04 10:28:31;;;;;;;1.73;1.03;;;;;;;17.23;67.97;99300.91;5085873;28;20204;-85
2023/10/04 10:31:01;;;;;;;3.47;1.10;;;;;;;17.19;70.29;99315.47;5084912;28;20234;-85
2023/10/04 10:33:28;;;;;;;4.87;1.37;;;;;;;17.11;67.61;99301.00;5085237;28;20207;-85
2023/10/04 10:35:59;;;;;;;3.43;1.30;;;;;;;17.09;68.10;99309.16;5084961;28;20208;-84
2023/10/04 10:38:32;;;;;;;2.40;1.00;;;;;;;17.13;68.76;99315.94;5084434;28;20225;-85
2023/10/04 10:40:58;;;;;;;4.27;1.47;;;;;;;17.16;67.72;99305.03;5083436;28;20223;-85
2023/10/04 10:43:25;;;;;;;2.33;1.20;;;;;;;17.25;65.58;99288.28;5084068;28;20199;-85
2023/10/04 10:45:52;;;;;;;2.50;1.30;;;;;;;17.35;65.54;99299.09;5084805;28;20222;-85
2023/10/04 10:48:30;;;;;;;2.53;1.30;;;;;;;17.37;66.38;99298.03;5085078;28;20622;-84
2023/10/04 10:50:57;;;;;;;2.43;1.00;;;;;;;17.49;66.43;99298.91;5085428;28;20235;-85
2023/10/04 10:53:24;;;;;;;3.40;1.10;;;;;;;17.62;68.30;99308.50;5085225;28;20199;-85
2023/10/04 10:55:54;;;;;;;3.67;1.40;;;;;;;17.77;65.88;99290.38;5085698;28;20203;-85
2023/10/04 10:58:20;;;;;;;2.40;1.10;;;;;;;17.99;65.45;99296.56;5085592;28;20256;-84
2023/10/04 11:00:47;;;;;;;2.87;1.20;;;;;;;17.96;61.21;99264.72;5085904;28;20223;-86
2023/10/04 11:03:14;;;;;;;3.03;1.33;;;;;;;17.99;60.44;99259.09;5085030;28;20237;-84
2023/10/04 11:05:41;;;;;;;3.17;1.30;;;;;;;17.96;60.41;99264.72;5085087;28;20215;-84
2023/10/04 11:08:08;;;;;;;2.07;1.00;;;;;;;17.99;59.58;99263.63;5067065;28;20208;-85
2023/10/04 11:10:36;;;;;;;3.17;1.13;;;;;;;17.95;60.57;99263.03;5085168;28;20207;-84
2023/10/04 11:13:08;;;;;;;3.17;1.57;;;;;;;17.96;60.75;99264.72;5085920;28;20650;-82
2023/10/04 11:15:36;;;;;;;1.73;1.00;;;;;;;17.86;60.75;99269.09;5074387;28;20253;-79
2023/10/04 11:18:03;;;;;;;2.83;1.33;;;;;;;17.81;63.49;99287.34;5073619;28;20214;-80
2023/10/04 11:20:32;;;;;;;5.77;1.53;;;;;;;17.81;64.87;99287.34;5074233;28;20231;-80
2023/10/04 11:22:58;;;;;;;4.67;1.77;;;;;;;17.79;63.63;99273.25;5073831;28;20223;-80
2023/10/04 11:25:27;;;;;;;1.67;1.10;;;;;;;17.87;63.83;99268.13;5073955;28;20215;-80
2023/10/04 11:27:54;;;;;;;2.50;0.97;;;;;;;17.92;65.70;99278.47;5073742;28;20203;-80
2023/10/04 11:30:23;;;;;;;2.50;1.00;;;;;;;18.08;61.80;99252.16;5074439;28;20276;-83
2023/10/04 11:32:50;;;;;;;3.57;1.17;;;;;;;18.07;60.20;99240.63;5073313;28;20246;-79
2023/10/04 11:35:19;;;;;;;2.40;1.20;;;;;;;18.00;60.20;99243.91;5073052;28;20207;-79